createdAt,value
2022-09-13T00:03:59.671Z,2.50
2022-09-13T00:09:01.756Z,1.93
2022-09-13T00:14:03.908Z,2.00
2022-09-13T00:19:06.946Z,2.23
2022-09-13T00:24:08.576Z,2.80
2022-09-13T00:29:10.717Z,2.63
2022-09-13T00:34:13.888Z,2.63
2022-09-13T00:39:15.942Z,2.90
2022-09-13T00:44:52.748Z,3.60
2022-09-13T00:50:02.899Z,3.00
2022-09-13T00:55:11.579Z,2.63
2022-09-13T01:00:18.277Z,3.27
2022-09-13T01:05:27.083Z,3.30
2022-09-13T01:10:29.258Z,2.83
2022-09-13T01:15:31.266Z,3.07
2022-09-13T01:20:46.835Z,3.20
2022-09-13T01:26:16.665Z,2.83
2022-09-13T01:31:29.357Z,3.73
2022-09-13T01:36:58.416Z,2.57
2022-09-13T01:42:11.651Z,4.00
2022-09-13T01:47:25.818Z,2.53
2022-09-13T01:52:37.102Z,4.40
2022-09-13T01:57:44.360Z,3.33
2022-09-13T02:02:50.698Z,2.77
2022-09-13T02:07:59.687Z,2.90
2022-09-13T02:13:05.738Z,2.77
2022-09-13T02:18:12.636Z,2.67
2022-09-13T02:23:19.017Z,2.20
2022-09-13T02:28:27.820Z,2.17
2022-09-13T02:33:36.290Z,2.93
2022-09-13T02:38:44.943Z,3.33
2022-09-13T02:43:51.907Z,3.10
2022-09-13T02:49:01.335Z,2.93
2022-09-13T02:54:15.521Z,2.70
2022-09-13T02:59:20.667Z,2.50
2022-09-13T03:04:23.799Z,2.10
2022-09-13T03:09:26.015Z,2.53
2022-09-13T03:14:39.611Z,3.00
2022-09-13T03:20:01.599Z,2.77
2022-09-13T03:25:10.579Z,2.87
2022-09-13T03:30:14.673Z,3.50
2022-09-13T03:35:26.190Z,3.27
2022-09-13T03:40:39.787Z,3.87
2022-09-13T03:45:46.901Z,2.83
2022-09-13T03:50:50.916Z,3.20
2022-09-13T03:55:53.084Z,4.13
2022-09-13T04:00:55.075Z,3.30
2022-09-13T04:05:58.485Z,3.57
2022-09-13T04:11:01.053Z,4.70
2022-09-13T04:16:04.359Z,5.37
2022-09-13T04:21:08.970Z,6.13
2022-09-13T04:26:10.722Z,7.83
2022-09-13T04:31:12.389Z,5.60
2022-09-13T04:36:15.358Z,8.50
2022-09-13T04:41:17.088Z,7.20
2022-09-13T04:46:18.807Z,6.70
2022-09-13T04:51:21.874Z,6.90
2022-09-13T04:56:24.708Z,12.70
2022-09-13T05:01:28.070Z,8.60
2022-09-13T05:06:31.268Z,9.03
2022-09-13T05:11:33.585Z,11.97
2022-09-13T05:16:35.548Z,8.33
2022-09-13T05:21:38.547Z,9.03
2022-09-13T05:26:40.345Z,7.90
2022-09-13T05:31:43.773Z,9.17
2022-09-13T05:36:53.173Z,10.50
2022-09-13T05:41:56.366Z,7.97
2022-09-13T05:46:58.697Z,10.73
2022-09-13T05:52:02.112Z,8.93
2022-09-13T05:57:04.834Z,8.23
2022-09-13T06:02:06.874Z,10.10
2022-09-13T06:07:12.869Z,9.23
2022-09-13T06:12:14.743Z,10.97
2022-09-13T06:17:16.926Z,12.50
2022-09-13T06:22:19.863Z,9.37
2022-09-13T06:27:21.755Z,8.67
2022-09-13T06:32:23.460Z,8.40
2022-09-13T06:37:26.667Z,7.83
2022-09-13T06:42:28.329Z,9.73
2022-09-13T06:47:30.003Z,8.47
2022-09-13T06:52:33.018Z,9.27
2022-09-13T06:57:34.930Z,10.10
2022-09-13T07:02:36.614Z,8.87
2022-09-13T07:07:39.584Z,10.90
2022-09-13T07:12:41.621Z,8.53
2022-09-13T07:17:44.073Z,8.70
2022-09-13T07:22:47.175Z,5.60
2022-09-13T07:27:48.986Z,10.43
2022-09-13T07:32:51.143Z,6.20
2022-09-13T07:37:54.151Z,10.57
2022-09-13T07:42:56.166Z,6.73
2022-09-13T07:47:57.802Z,7.17
2022-09-13T07:53:00.797Z,6.97
2022-09-13T07:58:02.652Z,10.30
2022-09-13T08:03:04.722Z,7.97
2022-09-13T08:08:07.796Z,10.47
2022-09-13T08:13:09.424Z,9.03
2022-09-13T08:18:11.488Z,9.73
2022-09-13T08:23:15.143Z,8.07
2022-09-13T08:28:18.908Z,7.17
2022-09-13T08:33:20.577Z,9.20
2022-09-13T08:38:24.030Z,7.87
2022-09-13T08:43:37.853Z,7.30
2022-09-13T08:48:44.202Z,8.47
2022-09-13T08:53:49.398Z,6.47
2022-09-13T08:59:17.101Z,6.20
2022-09-13T09:04:33.177Z,7.60
2022-09-13T09:09:45.216Z,7.73
2022-09-13T09:14:58.956Z,7.17
2022-09-13T09:20:08.771Z,5.73
2022-09-13T09:25:12.334Z,5.87
2022-09-13T09:30:14.618Z,6.07
2022-09-13T09:35:29.355Z,7.60
2022-09-13T09:40:34.012Z,4.07
2022-09-13T09:45:40.300Z,5.70
2022-09-13T09:50:47.675Z,4.05
2022-09-13T09:55:55.888Z,4.43
2022-09-13T10:00:58.938Z,5.13
2022-09-13T10:06:06.538Z,3.58
2022-09-13T10:11:10.323Z,4.32
2022-09-13T10:16:25.901Z,5.18
2022-09-13T10:21:27.630Z,4.40
2022-09-13T10:26:33.768Z,4.35
2022-09-13T10:31:37.697Z,5.07
2022-09-13T10:36:52.630Z,4.20
2022-09-13T10:41:58.022Z,4.07
2022-09-13T10:47:03.570Z,3.25
2022-09-13T10:52:33.932Z,3.13
2022-09-13T10:57:37.866Z,3.28
2022-09-13T11:02:54.496Z,3.40
2022-09-13T11:08:32.081Z,4.77
2022-09-13T11:13:50.287Z,4.43
2022-09-13T11:19:08.529Z,6.10
2022-09-13T11:24:33.119Z,5.97
2022-09-13T11:30:01.468Z,6.70
2022-09-13T11:35:22.060Z,7.10
2022-09-13T11:40:46.835Z,7.33
2022-09-13T11:46:00.889Z,5.87
2022-09-13T11:51:10.833Z,7.00
2022-09-13T11:56:19.992Z,6.87
2022-09-13T12:01:28.286Z,8.10
2022-09-13T12:06:34.309Z,6.30
2022-09-13T12:11:38.784Z,7.23
2022-09-13T12:16:46.099Z,7.07
2022-09-13T12:21:49.711Z,5.40
2022-09-13T12:26:59.211Z,6.43
2022-09-13T12:32:05.750Z,7.30
2022-09-13T12:37:19.176Z,6.20
2022-09-13T12:42:40.902Z,7.30
2022-09-13T12:47:59.396Z,5.10
2022-09-13T12:53:09.745Z,5.33
2022-09-13T12:58:34.646Z,4.77
2022-09-13T13:03:48.646Z,4.90
2022-09-13T13:08:53.302Z,6.53
2022-09-13T13:13:57.280Z,4.77
2022-09-13T13:19:01.888Z,4.75
2022-09-13T13:24:36.967Z,6.72
2022-09-13T13:29:38.956Z,6.03
2022-09-13T13:34:45.125Z,4.55
2022-09-13T13:39:49.013Z,6.90
2022-09-13T13:45:19.882Z,6.97
2022-09-13T13:50:23.266Z,7.18
2022-09-13T13:55:40.562Z,5.50
2022-09-13T14:00:48.531Z,6.32
2022-09-13T14:05:57.725Z,5.97
2022-09-13T14:11:08.488Z,5.03
2022-09-13T14:16:23.879Z,5.40
2022-09-13T14:21:31.234Z,7.03
2022-09-13T14:26:32.928Z,6.47
2022-09-13T14:31:37.889Z,7.70
2022-09-13T14:36:51.822Z,4.87
2022-09-13T14:42:01.969Z,4.55
2022-09-13T14:47:12.726Z,3.72
2022-09-13T14:52:23.840Z,3.97
2022-09-13T14:57:28.946Z,3.13
2022-09-13T15:02:36.100Z,3.33
2022-09-13T15:07:41.111Z,3.70
2022-09-13T15:12:50.776Z,3.57
2022-09-13T15:17:55.441Z,3.13
2022-09-13T15:22:58.589Z,4.57
2022-09-13T15:28:00.689Z,3.70
2022-09-13T15:33:14.051Z,3.47
2022-09-13T15:38:23.633Z,3.70
2022-09-13T15:43:25.269Z,3.17
2022-09-13T15:48:30.114Z,2.90
2022-09-13T15:53:33.220Z,2.63
2022-09-13T15:58:36.038Z,2.63
2022-09-13T16:03:37.705Z,2.60
2022-09-13T16:08:41.487Z,3.77
2022-09-13T16:13:43.378Z,2.63
2022-09-13T16:18:45.363Z,2.57
2022-09-13T16:23:48.849Z,2.63
2022-09-13T16:28:52.451Z,2.17
2022-09-13T16:33:55.743Z,3.77
2022-09-13T16:38:59.886Z,2.27
2022-09-13T16:44:02.867Z,4.10
2022-09-13T16:49:05.693Z,4.70
2022-09-13T16:54:12.721Z,5.43
2022-09-13T16:59:15.707Z,2.47
2022-09-13T17:04:18.237Z,1.60
2022-09-13T17:09:21.760Z,1.60
2022-09-13T17:14:24.972Z,2.93
2022-09-13T17:19:29.858Z,2.00
2022-09-13T17:24:34.592Z,2.07
2022-09-13T17:29:37.235Z,2.53
2022-09-13T17:34:39.202Z,2.53
2022-09-13T17:39:42.305Z,1.40
2022-09-13T17:44:44.351Z,3.10
2022-09-13T17:49:46.306Z,3.33
2022-09-13T17:54:49.502Z,3.20
2022-09-13T17:59:51.555Z,2.57
2022-09-13T18:04:54.156Z,2.63
2022-09-13T18:09:57.218Z,4.53
2022-09-13T18:14:59.190Z,2.67
2022-09-13T18:20:01.038Z,2.83
2022-09-13T18:25:05.310Z,3.53
2022-09-13T18:30:08.224Z,3.63
2022-09-13T18:35:10.223Z,3.43
2022-09-13T18:40:13.614Z,3.30
2022-09-13T18:45:16.016Z,5.00
2022-09-13T18:50:20.138Z,5.27
2022-09-13T18:55:24.506Z,6.70
2022-09-13T19:00:29.379Z,6.77
2022-09-13T19:05:35.676Z,4.10
2022-09-13T19:10:39.259Z,6.73
2022-09-13T19:15:41.708Z,6.67
2022-09-13T19:20:44.943Z,4.83
2022-09-13T19:25:49.262Z,4.57
2022-09-13T19:30:51.734Z,5.97
2022-09-13T19:36:01.030Z,6.17
2022-09-13T19:41:07.060Z,7.10
2022-09-13T19:46:11.689Z,6.10
2022-09-13T19:51:16.738Z,5.70
2022-09-13T19:56:22.402Z,6.33
2022-09-13T20:01:28.371Z,5.67
2022-09-13T20:06:35.535Z,5.60
2022-09-13T20:11:42.497Z,6.83
2022-09-13T20:16:45.038Z,7.87
2022-09-13T20:21:48.667Z,5.33
2022-09-13T20:26:52.175Z,5.87
2022-09-13T20:31:54.790Z,6.87
2022-09-13T20:36:56.567Z,8.40
2022-09-13T20:41:59.751Z,7.77
2022-09-13T20:47:01.969Z,5.07
2022-09-13T20:52:03.984Z,5.50
2022-09-13T20:57:15.203Z,6.67
2022-09-13T21:02:17.489Z,5.97
2022-09-13T21:07:19.920Z,4.83
2022-09-13T21:12:23.869Z,5.23
2022-09-13T21:17:26.406Z,5.27
2022-09-13T21:22:28.147Z,3.80
2022-09-13T21:27:31.594Z,4.77
2022-09-13T21:32:33.429Z,4.50
2022-09-13T21:37:38.815Z,6.63
2022-09-13T21:42:41.818Z,4.67
2022-09-13T21:47:44.480Z,4.43
2022-09-13T21:52:46.545Z,4.97
2022-09-13T21:57:49.846Z,9.50
2022-09-13T22:02:51.882Z,4.57
2022-09-13T22:07:53.833Z,4.80
2022-09-13T22:12:57.171Z,4.47
2022-09-13T22:17:59.344Z,4.63
2022-09-13T22:23:01.386Z,5.10
2022-09-13T22:28:04.395Z,4.43
2022-09-13T22:33:06.163Z,4.37
2022-09-13T22:38:07.816Z,4.43
2022-09-13T22:43:11.201Z,4.50
2022-09-13T22:48:13.155Z,5.27
2022-09-13T22:53:15.438Z,3.50
2022-09-13T22:58:18.866Z,3.83
2022-09-13T23:03:20.939Z,5.60
2022-09-13T23:08:23.514Z,4.07
2022-09-13T23:13:27.123Z,4.00
2022-09-13T23:18:30.740Z,3.83
2022-09-13T23:23:32.604Z,4.03
2022-09-13T23:28:36.400Z,4.87
2022-09-13T23:33:40.334Z,4.90
2022-09-13T23:38:46.995Z,3.57
2022-09-13T23:43:50.285Z,6.33
2022-09-13T23:48:52.357Z,4.47
2022-09-13T23:53:57.115Z,5.40
2022-09-13T23:59:01.991Z,2.93
